Terminal Aerodrome Forecast
Issued by NWS Grand Forks, ND

Home | Current Version | Previous Version | Graphics & Text | Print | Product List | Glossary On
Versions: 1 2 3 4 5 6 7 8 9 10 11 12 13 14 15 16 17 18 19 20 21 22 23 24 25
000
FTUS43 KFGF 172300
TAFGFK
TAF
KGFK 172323Z 1800/1824 15009KT P6SM SCT030
     FM180500 16008KT P6SM -TSRA BKN050CB
     FM180900 VRB06KT P6SM BKN100
     FM181500 30008KT P6SM BKN040
     FM181900 33010KT P6SM VCTS BKN040CB=

USA.gov is the U.S. government's official web portal to all federal, state and local government web resources and services.